PST,Max TemperatureF,Mean TemperatureF,Min TemperatureF,Max Dew PointF,MeanDew PointF,Min DewpointF,Max Humidity, Mean Humidity, Min Humidity, Max Sea Level PressureIn, Mean Sea Level PressureIn, Min Sea Level PressureIn, Max VisibilityMiles, Mean VisibilityMiles, Min VisibilityMiles, Max Wind SpeedMPH, Mean Wind SpeedMPH, Max Gust SpeedMPH,PrecipitationIn, CloudCover, Events, WindDirDegrees
2012-12-1,64,60,56,59,56,52,90,84,78,30.12,30.08,30.04,10,8,1,13,7,16,0.09,7,Rain,120
2012-12-2,64,62,60,58,57,54,90,81,72,30.08,30.01,29.96,10,7,1,20,11,25,0.39,8,Rain,119
2012-12-3,65,60,54,57,53,52,100,84,67,30.22,30.16,30.08,10,8,0,9,3,20,0.00,6,Fog,235
2012-12-4,63,58,52,54,53,51,100,86,72,30.28,30.22,30.18,9,3,0,8,2,18,0.00,7,Fog,115
2012-12-5,63,58,52,55,52,50,93,80,67,30.21,30.14,30.08,10,6,2,15,4,,0.03,7,Rain,317
2012-12-6,59,56,52,56,55,53,100,92,83,30.15,30.09,30.04,10,4,0,16,9,30,T,8,Fog-Rain,303
2012-12-7,63,59,54,54,49,45,93,79,64,30.14,30.11,30.07,10,9,5,12,7,12,0.00,6,,290
2012-12-8,60,53,46,50,48,44,93,80,67,30.10,30.07,30.03,7,4,0,10,2,13,0.00,7,Fog,292
2012-12-9,58,52,46,48,47,44,100,86,72,30.22,30.16,30.09,6,2,0,8,2,15,0.00,4,Fog,305
2012-12-10,61,52,42,48,44,40,93,77,60,30.26,30.20,30.15,5,3,0,8,1,17,0.00,2,Fog,207
2012-12-11,65,54,43,48,45,41,100,76,52,30.15,30.02,29.85,6,2,0,8,2,13,0.00,3,Fog,131
2012-12-12,50,49,47,47,45,42,93,84,74,29.93,29.89,29.86,10,4,1,10,4,14,0.33,7,Rain,332
2012-12-13,62,50,39,45,40,34,96,74,51,29.92,29.89,29.84,10,6,0,13,4,16,0.00,3,Fog,299
2012-12-14,54,44,34,41,38,34,100,83,66,30.03,29.92,29.85,7,3,0,7,2,15,0.00,7,Fog,119
2012-12-15,51,45,39,43,39,36,100,80,59,30.13,30.09,30.03,10,3,0,8,2,16,0.00,5,Fog,160
2012-12-16,60,49,37,43,38,34,86,63,40,30.17,30.12,30.09,10,8,3,8,3,12,0.00,5,,98
2012-12-17,66,59,52,54,47,41,83,70,56,30.14,30.05,29.96,10,10,4,17,9,21,0.06,7,Rain,135
2012-12-18,53,46,39,49,37,25,86,62,38,30.13,30.00,29.95,10,10,8,29,12,37,0.02,5,Rain,307
2012-12-19,52,43,33,32,30,28,82,62,41,30.35,30.28,30.13,10,10,7,13,4,17,0.00,0,,114
2012-12-20,60,46,32,33,28,20,85,53,20,30.29,30.19,30.11,10,10,10,8,3,12,0.00,1,,109
2012-12-21,60,47,33,42,32,27,75,54,32,30.09,30.05,30.00,10,10,7,16,6,20,T,6,Rain,106
2012-12-22,57,52,46,49,44,33,89,73,56,30.16,30.07,30.00,10,9,1,24,8,30,0.29,8,Rain,86
2012-12-23,54,52,49,50,48,46,100,89,77,30.18,30.11,29.96,10,6,0,22,10,29,0.35,8,Fog-Rain,125
2012-12-24,58,51,44,50,44,41,100,78,55,30.19,30.12,30.00,10,6,0,17,7,22,0.02,5,Fog-Rain,310
2012-12-25,51,46,40,46,43,39,96,87,77,30.20,30.08,29.92,10,3,0,17,4,21,0.27,7,Fog-Rain,135
2012-12-26,57,51,45,44,43,40,93,74,55,30.09,30.00,29.91,10,9,3,15,3,26,0.17,7,Rain,52
2012-12-27,53,47,41,43,40,37,96,78,59,30.20,30.12,30.08,10,7,2,14,3,17,0.00,5,,313
2012-12-28,51,43,35,43,37,32,92,76,59,30.23,30.16,30.07,10,7,1,7,2,9,0.00,6,,103
2012-12-29,54,47,40,41,39,36,93,72,50,30.09,30.04,29.99,10,7,3,15,4,18,T,7,,55
2012-12-30,55,47,38,40,38,37,92,73,54,30.17,30.07,30.01,10,6,2,12,3,15,T,5,,300
2012-12-31,53,45,37,39,36,33,92,71,50,30.30,30.26,30.18,10,8,5,10,3,15,0.00,5,,140